logo
Rechercher aéroport 
image banner adimage banner adimage banner ad
image banner ad

ESSZ - Gnesta/Vangso

Situé à Gnesta, Sweden

ICAO - ESSZ, IATA -

Données fournies par Airmate  

Information générale

Coordonnées: N59°6'4" E17°12'40"
Élévation : 56 feet MSL.
Variation magnétique : 6° East
Voir autres Aéroports à Södermanlands län

Données opérationnelles

Special qualification required
Heure actuelle UTC:
Heure actuelle locale:
Météo à : ESKN - Stockholm/Skavsta ( 39 km )
METAR: ESKN 231620Z 20011KT CAVOK 06/M00 Q0991
TAF: TAF ESKN 231430Z 2315/2415 20015G25KT 9999 BKN040 BECMG 2318/2320 18007KT
Voir NOTAMs / SUP AIP / TFR affectant cet aéroport [VIEW]
Fréquences de communication: [VIEW]

Pistes:

Identifiant RWYQFULongueur (ft)Largeur (ft)SurfaceLDA (ft)
032133164GRASS
212133164GRASS
15206798GRASS
33206798GRASS

Coordonnées de l'aéroport

Adresse: Gnesta Sweden

Autres services d'aviation

Clubs d'aviation (sans but lucratif)

Östra Sörmlands Flygklubb

Östra Sörmlands Flygklubb
info@osfk.se+4615831212

Vue satellite de ESSZ